sensor_id;sensor_type;location;lat;lon;timestamp;P1;durP1;ratioP1;P2;durP2;ratioP2
8478;SDS011;4276;49.354;6.804;2023-06-26T00:00:24;5.22;;;4.82;;
8478;SDS011;4276;49.354;6.804;2023-06-26T00:02:51;5.05;;;4.65;;
8478;SDS011;4276;49.354;6.804;2023-06-26T00:05:17;5.45;;;5.05;;
8478;SDS011;4276;49.354;6.804;2023-06-26T00:07:44;4.63;;;4.25;;
8478;SDS011;4276;49.354;6.804;2023-06-26T00:10:10;5.03;;;4.63;;
8478;SDS011;4276;49.354;6.804;2023-06-26T00:12:37;6.70;;;5.25;;
8478;SDS011;4276;49.354;6.804;2023-06-26T00:15:03;5.10;;;4.70;;
8478;SDS011;4276;49.354;6.804;2023-06-26T00:17:30;4.95;;;4.57;;
8478;SDS011;4276;49.354;6.804;2023-06-26T00:20:02;5.97;;;5.57;;
8478;SDS011;4276;49.354;6.804;2023-06-26T00:22:31;4.93;;;4.60;;
8478;SDS011;4276;49.354;6.804;2023-06-26T00:24:57;5.47;;;5.07;;
8478;SDS011;4276;49.354;6.804;2023-06-26T00:27:24;5.78;;;5.28;;
8478;SDS011;4276;49.354;6.804;2023-06-26T00:29:50;5.32;;;4.93;;
8478;SDS011;4276;49.354;6.804;2023-06-26T00:32:19;5.15;;;4.72;;
8478;SDS011;4276;49.354;6.804;2023-06-26T00:34:45;5.45;;;4.95;;
8478;SDS011;4276;49.354;6.804;2023-06-26T00:37:13;5.25;;;4.75;;
8478;SDS011;4276;49.354;6.804;2023-06-26T00:39:39;5.50;;;5.10;;
8478;SDS011;4276;49.354;6.804;2023-06-26T00:42:06;6.05;;;5.57;;
8478;SDS011;4276;49.354;6.804;2023-06-26T00:44:34;5.78;;;5.28;;
8478;SDS011;4276;49.354;6.804;2023-06-26T00:47:01;5.40;;;5.00;;
8478;SDS011;4276;49.354;6.804;2023-06-26T00:49:27;5.85;;;5.35;;
8478;SDS011;4276;49.354;6.804;2023-06-26T00:51:54;5.50;;;5.10;;
8478;SDS011;4276;49.354;6.804;2023-06-26T00:54:21;7.57;;;5.20;;
8478;SDS011;4276;49.354;6.804;2023-06-26T00:56:48;5.57;;;5.07;;
8478;SDS011;4276;49.354;6.804;2023-06-26T00:59:14;5.40;;;4.93;;
8478;SDS011;4276;49.354;6.804;2023-06-26T01:01:41;5.35;;;4.95;;
8478;SDS011;4276;49.354;6.804;2023-06-26T01:04:08;5.68;;;5.28;;
8478;SDS011;4276;49.354;6.804;2023-06-26T01:06:42;5.68;;;5.28;;
8478;SDS011;4276;49.354;6.804;2023-06-26T01:09:08;5.40;;;5.00;;
8478;SDS011;4276;49.354;6.804;2023-06-26T01:11:35;5.38;;;4.88;;
8478;SDS011;4276;49.354;6.804;2023-06-26T01:14:01;5.75;;;5.25;;
8478;SDS011;4276;49.354;6.804;2023-06-26T01:16:28;5.88;;;5.38;;
8478;SDS011;4276;49.354;6.804;2023-06-26T01:18:55;5.63;;;5.13;;
8478;SDS011;4276;49.354;6.804;2023-06-26T01:21:23;5.88;;;5.40;;
8478;SDS011;4276;49.354;6.804;2023-06-26T01:24:02;5.32;;;4.82;;
8478;SDS011;4276;49.354;6.804;2023-06-26T01:26:32;5.63;;;5.22;;
8478;SDS011;4276;49.354;6.804;2023-06-26T01:29:04;5.63;;;5.22;;
8478;SDS011;4276;49.354;6.804;2023-06-26T01:31:32;5.75;;;5.03;;
8478;SDS011;4276;49.354;6.804;2023-06-26T01:34:00;5.68;;;5.22;;
8478;SDS011;4276;49.354;6.804;2023-06-26T01:36:26;5.45;;;5.03;;
8478;SDS011;4276;49.354;6.804;2023-06-26T01:38:53;5.65;;;5.15;;
8478;SDS011;4276;49.354;6.804;2023-06-26T01:41:20;5.53;;;5.13;;
8478;SDS011;4276;49.354;6.804;2023-06-26T01:46:54;6.07;;;5.47;;
8478;SDS011;4276;49.354;6.804;2023-06-26T01:49:25;5.22;;;4.82;;
8478;SDS011;4276;49.354;6.804;2023-06-26T01:58:02;5.63;;;5.13;;
8478;SDS011;4276;49.354;6.804;2023-06-26T02:00:29;5.38;;;4.97;;
8478;SDS011;4276;49.354;6.804;2023-06-26T02:02:57;5.80;;;5.30;;
8478;SDS011;4276;49.354;6.804;2023-06-26T02:05:25;5.72;;;5.22;;
8478;SDS011;4276;49.354;6.804;2023-06-26T02:07:52;5.90;;;5.38;;
8478;SDS011;4276;49.354;6.804;2023-06-26T02:10:18;6.28;;;5.78;;
8478;SDS011;4276;49.354;6.804;2023-06-26T02:12:45;6.43;;;5.82;;
8478;SDS011;4276;49.354;6.804;2023-06-26T02:15:12;5.97;;;5.53;;
8478;SDS011;4276;49.354;6.804;2023-06-26T02:17:38;6.25;;;5.75;;
8478;SDS011;4276;49.354;6.804;2023-06-26T02:20:05;6.03;;;5.53;;
8478;SDS011;4276;49.354;6.804;2023-06-26T02:22:32;5.70;;;5.20;;
8478;SDS011;4276;49.354;6.804;2023-06-26T02:24:58;5.88;;;5.38;;
8478;SDS011;4276;49.354;6.804;2023-06-26T02:27:25;5.85;;;5.43;;
8478;SDS011;4276;49.354;6.804;2023-06-26T02:29:51;5.95;;;5.45;;
8478;SDS011;4276;49.354;6.804;2023-06-26T02:32:19;5.60;;;5.20;;
8478;SDS011;4276;49.354;6.804;2023-06-26T02:34:45;6.03;;;5.53;;
8478;SDS011;4276;49.354;6.804;2023-06-26T02:37:12;5.90;;;5.40;;
8478;SDS011;4276;49.354;6.804;2023-06-26T02:39:39;5.07;;;4.72;;
8478;SDS011;4276;49.354;6.804;2023-06-26T02:42:06;5.65;;;5.13;;
8478;SDS011;4276;49.354;6.804;2023-06-26T02:44:33;5.90;;;5.50;;
8478;SDS011;4276;49.354;6.804;2023-06-26T02:46:59;5.57;;;5.18;;
8478;SDS011;4276;49.354;6.804;2023-06-26T02:49:26;5.35;;;4.85;;
8478;SDS011;4276;49.354;6.804;2023-06-26T02:51:52;5.30;;;4.90;;
8478;SDS011;4276;49.354;6.804;2023-06-26T02:54:19;5.40;;;4.90;;
8478;SDS011;4276;49.354;6.804;2023-06-26T02:56:45;5.78;;;5.22;;
8478;SDS011;4276;49.354;6.804;2023-06-26T02:59:14;6.30;;;5.70;;
8478;SDS011;4276;49.354;6.804;2023-06-26T03:01:40;5.85;;;5.35;;
8478;SDS011;4276;49.354;6.804;2023-06-26T03:04:07;6.28;;;5.72;;
8478;SDS011;4276;49.354;6.804;2023-06-26T03:06:34;5.90;;;5.50;;
8478;SDS011;4276;49.354;6.804;2023-06-26T03:09:02;5.82;;;5.32;;
8478;SDS011;4276;49.354;6.804;2023-06-26T03:11:29;6.18;;;5.68;;
8478;SDS011;4276;49.354;6.804;2023-06-26T03:13:55;5.63;;;5.22;;
8478;SDS011;4276;49.354;6.804;2023-06-26T03:16:22;6.28;;;5.78;;
8478;SDS011;4276;49.354;6.804;2023-06-26T03:18:48;6.05;;;5.57;;
8478;SDS011;4276;49.354;6.804;2023-06-26T03:21:15;6.10;;;5.60;;
8478;SDS011;4276;49.354;6.804;2023-06-26T03:23:41;5.70;;;5.30;;
8478;SDS011;4276;49.354;6.804;2023-06-26T03:26:08;5.65;;;5.22;;
8478;SDS011;4276;49.354;6.804;2023-06-26T03:28:34;5.35;;;4.95;;
8478;SDS011;4276;49.354;6.804;2023-06-26T03:31:01;5.90;;;5.50;;
8478;SDS011;4276;49.354;6.804;2023-06-26T03:33:27;6.55;;;5.97;;
8478;SDS011;4276;49.354;6.804;2023-06-26T03:35:54;6.20;;;5.70;;
8478;SDS011;4276;49.354;6.804;2023-06-26T03:38:21;6.20;;;5.70;;
8478;SDS011;4276;49.354;6.804;2023-06-26T03:40:48;6.05;;;5.55;;
8478;SDS011;4276;49.354;6.804;2023-06-26T03:43:14;5.57;;;5.18;;
8478;SDS011;4276;49.354;6.804;2023-06-26T03:45:41;6.63;;;6.03;;
8478;SDS011;4276;49.354;6.804;2023-06-26T03:48:08;6.25;;;5.80;;
8478;SDS011;4276;49.354;6.804;2023-06-26T03:50:35;6.35;;;5.75;;
8478;SDS011;4276;49.354;6.804;2023-06-26T03:53:02;6.25;;;5.65;;
8478;SDS011;4276;49.354;6.804;2023-06-26T03:55:29;6.30;;;5.80;;
8478;SDS011;4276;49.354;6.804;2023-06-26T03:57:55;6.00;;;5.40;;
8478;SDS011;4276;49.354;6.804;2023-06-26T04:00:22;5.65;;;4.97;;
8478;SDS011;4276;49.354;6.804;2023-06-26T04:02:48;6.38;;;5.85;;
8478;SDS011;4276;49.354;6.804;2023-06-26T04:05:15;6.35;;;5.85;;
8478;SDS011;4276;49.354;6.804;2023-06-26T04:07:43;5.90;;;5.40;;
8478;SDS011;4276;49.354;6.804;2023-06-26T04:10:09;5.30;;;4.90;;
8478;SDS011;4276;49.354;6.804;2023-06-26T04:12:36;6.10;;;5.50;;
8478;SDS011;4276;49.354;6.804;2023-06-26T04:15:03;5.70;;;5.20;;
8478;SDS011;4276;49.354;6.804;2023-06-26T04:17:29;6.40;;;5.80;;
8478;SDS011;4276;49.354;6.804;2023-06-26T04:19:56;5.63;;;5.22;;
8478;SDS011;4276;49.354;6.804;2023-06-26T04:22:22;6.35;;;5.85;;
8478;SDS011;4276;49.354;6.804;2023-06-26T04:24:49;6.03;;;5.55;;
8478;SDS011;4276;49.354;6.804;2023-06-26T04:27:15;6.18;;;5.68;;
8478;SDS011;4276;49.354;6.804;2023-06-26T04:29:43;6.43;;;5.93;;
8478;SDS011;4276;49.354;6.804;2023-06-26T04:32:09;6.25;;;5.68;;
8478;SDS011;4276;49.354;6.804;2023-06-26T04:34:36;6.20;;;5.80;;
8478;SDS011;4276;49.354;6.804;2023-06-26T04:37:02;7.20;;;6.53;;
8478;SDS011;4276;49.354;6.804;2023-06-26T04:39:31;6.03;;;5.53;;
8478;SDS011;4276;49.354;6.804;2023-06-26T04:41:58;6.47;;;5.88;;
8478;SDS011;4276;49.354;6.804;2023-06-26T04:44:24;6.80;;;5.50;;
8478;SDS011;4276;49.354;6.804;2023-06-26T04:46:51;5.97;;;5.55;;
8478;SDS011;4276;49.354;6.804;2023-06-26T04:49:18;6.50;;;6.00;;
8478;SDS011;4276;49.354;6.804;2023-06-26T04:51:46;7.43;;;6.82;;
8478;SDS011;4276;49.354;6.804;2023-06-26T04:54:12;6.90;;;6.30;;
8478;SDS011;4276;49.354;6.804;2023-06-26T04:56:39;7.07;;;6.47;;
8478;SDS011;4276;49.354;6.804;2023-06-26T04:59:09;6.60;;;6.10;;
8478;SDS011;4276;49.354;6.804;2023-06-26T05:01:39;6.50;;;5.55;;
8478;SDS011;4276;49.354;6.804;2023-06-26T05:04:06;6.72;;;6.15;;
8478;SDS011;4276;49.354;6.804;2023-06-26T05:06:33;6.55;;;6.00;;
8478;SDS011;4276;49.354;6.804;2023-06-26T05:08:59;6.47;;;5.97;;
8478;SDS011;4276;49.354;6.804;2023-06-26T05:11:26;6.38;;;5.88;;
8478;SDS011;4276;49.354;6.804;2023-06-26T05:13:52;8.10;;;5.95;;
8478;SDS011;4276;49.354;6.804;2023-06-26T05:16:18;6.78;;;6.18;;
8478;SDS011;4276;49.354;6.804;2023-06-26T05:18:45;7.00;;;6.40;;
8478;SDS011;4276;49.354;6.804;2023-06-26T05:21:11;6.45;;;5.95;;
8478;SDS011;4276;49.354;6.804;2023-06-26T05:23:38;6.65;;;6.15;;
8478;SDS011;4276;49.354;6.804;2023-06-26T05:26:05;7.45;;;6.75;;
8478;SDS011;4276;49.354;6.804;2023-06-26T05:28:31;6.93;;;6.38;;
8478;SDS011;4276;49.354;6.804;2023-06-26T05:30:58;7.53;;;6.90;;
8478;SDS011;4276;49.354;6.804;2023-06-26T05:33:26;6.53;;;5.93;;
8478;SDS011;4276;49.354;6.804;2023-06-26T05:35:53;6.63;;;6.05;;
8478;SDS011;4276;49.354;6.804;2023-06-26T05:38:20;6.65;;;5.88;;
8478;SDS011;4276;49.354;6.804;2023-06-26T05:40:47;7.45;;;6.70;;
8478;SDS011;4276;49.354;6.804;2023-06-26T05:43:14;8.07;;;6.90;;
8478;SDS011;4276;49.354;6.804;2023-06-26T05:45:40;8.80;;;7.90;;
8478;SDS011;4276;49.354;6.804;2023-06-26T05:48:07;9.77;;;7.43;;
8478;SDS011;4276;49.354;6.804;2023-06-26T05:50:34;13.93;;;8.02;;
8478;SDS011;4276;49.354;6.804;2023-06-26T05:53:01;17.67;;;8.05;;
8478;SDS011;4276;49.354;6.804;2023-06-26T05:55:29;13.05;;;8.18;;
8478;SDS011;4276;49.354;6.804;2023-06-26T05:57:56;13.40;;;7.65;;
8478;SDS011;4276;49.354;6.804;2023-06-26T06:00:24;12.45;;;8.10;;
8478;SDS011;4276;49.354;6.804;2023-06-26T06:02:54;11.88;;;7.53;;
8478;SDS011;4276;49.354;6.804;2023-06-26T06:05:21;11.27;;;6.93;;
8478;SDS011;4276;49.354;6.804;2023-06-26T06:07:48;8.35;;;6.38;;
8478;SDS011;4276;49.354;6.804;2023-06-26T06:10:15;9.35;;;6.55;;
8478;SDS011;4276;49.354;6.804;2023-06-26T06:12:42;6.50;;;5.93;;
8478;SDS011;4276;49.354;6.804;2023-06-26T06:15:08;6.93;;;6.13;;
8478;SDS011;4276;49.354;6.804;2023-06-26T06:17:35;7.30;;;6.60;;
8478;SDS011;4276;49.354;6.804;2023-06-26T06:20:02;6.22;;;5.65;;
8478;SDS011;4276;49.354;6.804;2023-06-26T06:22:29;6.75;;;6.07;;
8478;SDS011;4276;49.354;6.804;2023-06-26T06:24:56;6.82;;;6.22;;
8478;SDS011;4276;49.354;6.804;2023-06-26T06:27:22;6.65;;;5.78;;
8478;SDS011;4276;49.354;6.804;2023-06-26T06:29:49;7.13;;;6.53;;
8478;SDS011;4276;49.354;6.804;2023-06-26T06:32:15;6.60;;;5.85;;
8478;SDS011;4276;49.354;6.804;2023-06-26T06:34:42;6.93;;;6.13;;
8478;SDS011;4276;49.354;6.804;2023-06-26T06:37:09;6.28;;;5.60;;
8478;SDS011;4276;49.354;6.804;2023-06-26T06:39:35;7.32;;;6.63;;
8478;SDS011;4276;49.354;6.804;2023-06-26T06:42:02;7.90;;;7.00;;
8478;SDS011;4276;49.354;6.804;2023-06-26T06:44:28;7.30;;;6.30;;
8478;SDS011;4276;49.354;6.804;2023-06-26T06:46:56;6.22;;;5.60;;
8478;SDS011;4276;49.354;6.804;2023-06-26T06:49:23;4.85;;;4.45;;
8478;SDS011;4276;49.354;6.804;2023-06-26T06:51:49;5.07;;;4.68;;
8478;SDS011;4276;49.354;6.804;2023-06-26T06:54:16;5.25;;;4.75;;
8478;SDS011;4276;49.354;6.804;2023-06-26T06:56:43;6.15;;;4.35;;
8478;SDS011;4276;49.354;6.804;2023-06-26T06:59:09;4.28;;;3.88;;
8478;SDS011;4276;49.354;6.804;2023-06-26T07:01:39;4.22;;;3.83;;
8478;SDS011;4276;49.354;6.804;2023-06-26T07:04:05;4.38;;;3.78;;
8478;SDS011;4276;49.354;6.804;2023-06-26T07:06:32;3.95;;;3.65;;
8478;SDS011;4276;49.354;6.804;2023-06-26T07:08:58;5.53;;;3.88;;
8478;SDS011;4276;49.354;6.804;2023-06-26T07:11:25;4.13;;;3.72;;
8478;SDS011;4276;49.354;6.804;2023-06-26T07:13:51;4.20;;;3.65;;
8478;SDS011;4276;49.354;6.804;2023-06-26T07:16:18;3.65;;;3.30;;
8478;SDS011;4276;49.354;6.804;2023-06-26T07:18:45;3.85;;;3.55;;
8478;SDS011;4276;49.354;6.804;2023-06-26T07:21:11;5.07;;;3.45;;
8478;SDS011;4276;49.354;6.804;2023-06-26T07:23:38;5.80;;;4.40;;
8478;SDS011;4276;49.354;6.804;2023-06-26T07:26:04;6.70;;;3.90;;
8478;SDS011;4276;49.354;6.804;2023-06-26T07:28:31;3.22;;;3.00;;
8478;SDS011;4276;49.354;6.804;2023-06-26T07:30:57;2.83;;;2.63;;
8478;SDS011;4276;49.354;6.804;2023-06-26T07:33:24;2.80;;;2.60;;
8478;SDS011;4276;49.354;6.804;2023-06-26T07:35:50;2.60;;;2.47;;
8478;SDS011;4276;49.354;6.804;2023-06-26T07:38:17;2.90;;;2.60;;
8478;SDS011;4276;49.354;6.804;2023-06-26T07:40:43;3.15;;;2.88;;
8478;SDS011;4276;49.354;6.804;2023-06-26T07:43:10;3.28;;;2.97;;
8478;SDS011;4276;49.354;6.804;2023-06-26T07:45:36;8.25;;;4.20;;
8478;SDS011;4276;49.354;6.804;2023-06-26T07:48:03;5.20;;;3.75;;
8478;SDS011;4276;49.354;6.804;2023-06-26T07:50:29;5.93;;;4.50;;
8478;SDS011;4276;49.354;6.804;2023-06-26T07:52:56;8.27;;;6.57;;
8478;SDS011;4276;49.354;6.804;2023-06-26T07:55:23;4.95;;;4.45;;
8478;SDS011;4276;49.354;6.804;2023-06-26T07:57:49;7.75;;;4.10;;
8478;SDS011;4276;49.354;6.804;2023-06-26T08:00:18;4.05;;;3.20;;
8478;SDS011;4276;49.354;6.804;2023-06-26T08:02:44;3.25;;;3.05;;
8478;SDS011;4276;49.354;6.804;2023-06-26T08:05:11;5.75;;;3.55;;
8478;SDS011;4276;49.354;6.804;2023-06-26T08:07:38;3.30;;;3.10;;
8478;SDS011;4276;49.354;6.804;2023-06-26T08:10:05;3.92;;;3.55;;
8478;SDS011;4276;49.354;6.804;2023-06-26T08:12:32;4.32;;;3.20;;
8478;SDS011;4276;49.354;6.804;2023-06-26T08:14:58;5.25;;;3.20;;
8478;SDS011;4276;49.354;6.804;2023-06-26T08:17:25;7.05;;;3.40;;
8478;SDS011;4276;49.354;6.804;2023-06-26T08:19:55;4.60;;;3.10;;
8478;SDS011;4276;49.354;6.804;2023-06-26T08:22:21;3.17;;;2.72;;
8478;SDS011;4276;49.354;6.804;2023-06-26T08:24:48;4.55;;;3.67;;
8478;SDS011;4276;49.354;6.804;2023-06-26T08:27:15;5.15;;;3.47;;
8478;SDS011;4276;49.354;6.804;2023-06-26T08:29:41;3.08;;;2.80;;
8478;SDS011;4276;49.354;6.804;2023-06-26T08:32:08;2.92;;;2.55;;
8478;SDS011;4276;49.354;6.804;2023-06-26T08:34:34;2.97;;;2.25;;
8478;SDS011;4276;49.354;6.804;2023-06-26T08:37:01;3.17;;;2.30;;
8478;SDS011;4276;49.354;6.804;2023-06-26T08:39:28;2.53;;;2.10;;
8478;SDS011;4276;49.354;6.804;2023-06-26T08:41:54;2.20;;;2.00;;
8478;SDS011;4276;49.354;6.804;2023-06-26T08:44:21;3.03;;;2.10;;
8478;SDS011;4276;49.354;6.804;2023-06-26T08:46:51;2.53;;;2.13;;
8478;SDS011;4276;49.354;6.804;2023-06-26T08:49:19;6.53;;;2.22;;
8478;SDS011;4276;49.354;6.804;2023-06-26T08:51:50;5.00;;;2.80;;
8478;SDS011;4276;49.354;6.804;2023-06-26T08:54:19;4.10;;;2.50;;
8478;SDS011;4276;49.354;6.804;2023-06-26T08:56:48;4.25;;;2.55;;
8478;SDS011;4276;49.354;6.804;2023-06-26T08:59:16;2.40;;;2.20;;
8478;SDS011;4276;49.354;6.804;2023-06-26T09:01:43;2.47;;;2.28;;
8478;SDS011;4276;49.354;6.804;2023-06-26T09:04:10;2.30;;;2.10;;
8478;SDS011;4276;49.354;6.804;2023-06-26T09:06:36;5.78;;;2.83;;
8478;SDS011;4276;49.354;6.804;2023-06-26T09:09:03;3.45;;;3.00;;
8478;SDS011;4276;49.354;6.804;2023-06-26T09:11:31;3.17;;;2.88;;
8478;SDS011;4276;49.354;6.804;2023-06-26T09:13:57;4.28;;;2.90;;
8478;SDS011;4276;49.354;6.804;2023-06-26T09:16:25;2.75;;;2.53;;
8478;SDS011;4276;49.354;6.804;2023-06-26T09:18:53;3.58;;;2.33;;
8478;SDS011;4276;49.354;6.804;2023-06-26T09:21:21;5.35;;;2.67;;
8478;SDS011;4276;49.354;6.804;2023-06-26T09:23:48;10.50;;;3.42;;
8478;SDS011;4276;49.354;6.804;2023-06-26T09:26:16;4.50;;;2.45;;
8478;SDS011;4276;49.354;6.804;2023-06-26T09:28:43;3.72;;;2.33;;
8478;SDS011;4276;49.354;6.804;2023-06-26T09:31:10;4.47;;;2.35;;
8478;SDS011;4276;49.354;6.804;2023-06-26T09:33:37;4.07;;;2.50;;
8478;SDS011;4276;49.354;6.804;2023-06-26T09:36:04;2.80;;;2.30;;
8478;SDS011;4276;49.354;6.804;2023-06-26T09:38:36;6.88;;;2.95;;
8478;SDS011;4276;49.354;6.804;2023-06-26T09:41:03;4.45;;;2.47;;
8478;SDS011;4276;49.354;6.804;2023-06-26T09:43:29;3.08;;;2.60;;
8478;SDS011;4276;49.354;6.804;2023-06-26T09:45:58;3.08;;;2.45;;
8478;SDS011;4276;49.354;6.804;2023-06-26T09:48:25;4.00;;;2.50;;
8478;SDS011;4276;49.354;6.804;2023-06-26T09:50:53;4.75;;;2.70;;
8478;SDS011;4276;49.354;6.804;2023-06-26T09:53:38;6.00;;;3.00;;
8478;SDS011;4276;49.354;6.804;2023-06-26T09:56:05;5.75;;;3.05;;
8478;SDS011;4276;49.354;6.804;2023-06-26T09:58:33;4.45;;;2.80;;
8478;SDS011;4276;49.354;6.804;2023-06-26T10:00:59;3.35;;;2.67;;
8478;SDS011;4276;49.354;6.804;2023-06-26T10:03:26;4.18;;;2.85;;
8478;SDS011;4276;49.354;6.804;2023-06-26T10:05:53;4.10;;;3.05;;
8478;SDS011;4276;49.354;6.804;2023-06-26T10:08:19;4.15;;;2.85;;
8478;SDS011;4276;49.354;6.804;2023-06-26T10:10:46;5.03;;;2.92;;
8478;SDS011;4276;49.354;6.804;2023-06-26T10:13:15;4.80;;;2.60;;
8478;SDS011;4276;49.354;6.804;2023-06-26T10:15:47;2.72;;;2.15;;
8478;SDS011;4276;49.354;6.804;2023-06-26T10:18:17;2.67;;;2.20;;
8478;SDS011;4276;49.354;6.804;2023-06-26T10:20:47;4.43;;;2.05;;
8478;SDS011;4276;49.354;6.804;2023-06-26T10:23:15;4.35;;;2.78;;
8478;SDS011;4276;49.354;6.804;2023-06-26T10:25:42;4.68;;;2.60;;
8478;SDS011;4276;49.354;6.804;2023-06-26T10:28:10;2.85;;;1.95;;
8478;SDS011;4276;49.354;6.804;2023-06-26T10:30:38;3.40;;;2.28;;
8478;SDS011;4276;49.354;6.804;2023-06-26T10:33:05;3.42;;;2.15;;
8478;SDS011;4276;49.354;6.804;2023-06-26T10:35:34;2.90;;;2.38;;
8478;SDS011;4276;49.354;6.804;2023-06-26T10:38:08;3.03;;;2.30;;
8478;SDS011;4276;49.354;6.804;2023-06-26T10:40:45;3.67;;;2.30;;
8478;SDS011;4276;49.354;6.804;2023-06-26T10:43:13;5.07;;;2.45;;
8478;SDS011;4276;49.354;6.804;2023-06-26T10:45:58;2.95;;;2.15;;
8478;SDS011;4276;49.354;6.804;2023-06-26T10:48:24;4.75;;;2.40;;
8478;SDS011;4276;49.354;6.804;2023-06-26T10:50:55;2.92;;;1.92;;
8478;SDS011;4276;49.354;6.804;2023-06-26T10:53:23;4.15;;;2.53;;
8478;SDS011;4276;49.354;6.804;2023-06-26T10:55:55;3.50;;;2.28;;
8478;SDS011;4276;49.354;6.804;2023-06-26T10:58:33;2.58;;;2.20;;
8478;SDS011;4276;49.354;6.804;2023-06-26T11:03:49;4.78;;;2.50;;
8478;SDS011;4276;49.354;6.804;2023-06-26T11:06:24;3.35;;;2.08;;
8478;SDS011;4276;49.354;6.804;2023-06-26T11:08:51;2.92;;;2.10;;
8478;SDS011;4276;49.354;6.804;2023-06-26T11:14:22;5.07;;;2.10;;
8478;SDS011;4276;49.354;6.804;2023-06-26T11:16:49;3.83;;;2.50;;
8478;SDS011;4276;49.354;6.804;2023-06-26T11:19:19;3.15;;;2.13;;
8478;SDS011;4276;49.354;6.804;2023-06-26T11:21:46;5.70;;;2.22;;
8478;SDS011;4276;49.354;6.804;2023-06-26T11:24:13;6.47;;;2.55;;
8478;SDS011;4276;49.354;6.804;2023-06-26T11:26:40;9.45;;;2.45;;
8478;SDS011;4276;49.354;6.804;2023-06-26T11:29:08;4.45;;;2.50;;
8478;SDS011;4276;49.354;6.804;2023-06-26T11:31:38;8.00;;;2.88;;
8478;SDS011;4276;49.354;6.804;2023-06-26T11:34:06;4.43;;;1.98;;
8478;SDS011;4276;49.354;6.804;2023-06-26T11:36:39;3.97;;;1.73;;
8478;SDS011;4276;49.354;6.804;2023-06-26T11:39:08;5.50;;;2.03;;
8478;SDS011;4276;49.354;6.804;2023-06-26T11:41:35;3.10;;;1.67;;
8478;SDS011;4276;49.354;6.804;2023-06-26T11:44:06;7.95;;;2.70;;
8478;SDS011;4276;49.354;6.804;2023-06-26T11:46:34;6.38;;;3.28;;
8478;SDS011;4276;49.354;6.804;2023-06-26T11:49:07;3.90;;;2.20;;
8478;SDS011;4276;49.354;6.804;2023-06-26T11:51:34;4.63;;;1.80;;
8478;SDS011;4276;49.354;6.804;2023-06-26T11:54:02;3.50;;;1.98;;
8478;SDS011;4276;49.354;6.804;2023-06-26T11:56:30;3.60;;;1.63;;
8478;SDS011;4276;49.354;6.804;2023-06-26T12:01:31;2.80;;;2.00;;
8478;SDS011;4276;49.354;6.804;2023-06-26T12:04:00;3.00;;;1.52;;
8478;SDS011;4276;49.354;6.804;2023-06-26T12:06:28;2.83;;;1.38;;
8478;SDS011;4276;49.354;6.804;2023-06-26T12:09:00;2.40;;;1.50;;
8478;SDS011;4276;49.354;6.804;2023-06-26T12:11:29;2.42;;;1.52;;
8478;SDS011;4276;49.354;6.804;2023-06-26T12:13:57;5.13;;;2.20;;
8478;SDS011;4276;49.354;6.804;2023-06-26T12:16:23;3.47;;;1.65;;
8478;SDS011;4276;49.354;6.804;2023-06-26T12:18:51;2.33;;;1.73;;
8478;SDS011;4276;49.354;6.804;2023-06-26T12:21:44;2.95;;;1.80;;
8478;SDS011;4276;49.354;6.804;2023-06-26T12:24:16;3.42;;;1.70;;
8478;SDS011;4276;49.354;6.804;2023-06-26T12:26:44;2.35;;;1.75;;
8478;SDS011;4276;49.354;6.804;2023-06-26T12:29:12;1.83;;;1.55;;
8478;SDS011;4276;49.354;6.804;2023-06-26T12:31:43;1.98;;;1.67;;
8478;SDS011;4276;49.354;6.804;2023-06-26T12:34:12;3.75;;;1.90;;
8478;SDS011;4276;49.354;6.804;2023-06-26T12:36:47;2.90;;;1.50;;
8478;SDS011;4276;49.354;6.804;2023-06-26T12:39:19;1.50;;;1.40;;
8478;SDS011;4276;49.354;6.804;2023-06-26T12:41:53;3.40;;;1.83;;
8478;SDS011;4276;49.354;6.804;2023-06-26T12:44:25;4.68;;;2.00;;
8478;SDS011;4276;49.354;6.804;2023-06-26T12:47:01;3.72;;;2.22;;
8478;SDS011;4276;49.354;6.804;2023-06-26T12:49:39;5.63;;;2.10;;
8478;SDS011;4276;49.354;6.804;2023-06-26T12:52:08;4.25;;;1.95;;
8478;SDS011;4276;49.354;6.804;2023-06-26T12:54:36;7.20;;;2.33;;
8478;SDS011;4276;49.354;6.804;2023-06-26T12:57:04;6.70;;;2.17;;
8478;SDS011;4276;49.354;6.804;2023-06-26T12:59:31;5.18;;;1.75;;
8478;SDS011;4276;49.354;6.804;2023-06-26T13:01:58;1.77;;;1.67;;
8478;SDS011;4276;49.354;6.804;2023-06-26T13:04:25;3.60;;;2.13;;
8478;SDS011;4276;49.354;6.804;2023-06-26T13:06:52;3.25;;;1.80;;
8478;SDS011;4276;49.354;6.804;2023-06-26T13:09:22;2.58;;;1.75;;
8478;SDS011;4276;49.354;6.804;2023-06-26T13:11:53;4.65;;;1.80;;
8478;SDS011;4276;49.354;6.804;2023-06-26T13:14:19;2.97;;;2.13;;
8478;SDS011;4276;49.354;6.804;2023-06-26T13:16:46;4.30;;;1.80;;
8478;SDS011;4276;49.354;6.804;2023-06-26T13:19:13;3.47;;;1.88;;
8478;SDS011;4276;49.354;6.804;2023-06-26T13:21:39;5.88;;;2.30;;
8478;SDS011;4276;49.354;6.804;2023-06-26T13:24:06;2.58;;;1.60;;
8478;SDS011;4276;49.354;6.804;2023-06-26T13:26:33;2.67;;;1.60;;
8478;SDS011;4276;49.354;6.804;2023-06-26T13:29:03;3.05;;;1.48;;
8478;SDS011;4276;49.354;6.804;2023-06-26T13:31:30;4.13;;;1.63;;
8478;SDS011;4276;49.354;6.804;2023-06-26T13:33:58;2.92;;;1.85;;
8478;SDS011;4276;49.354;6.804;2023-06-26T13:36:25;1.95;;;1.73;;
8478;SDS011;4276;49.354;6.804;2023-06-26T13:38:52;2.22;;;1.45;;
8478;SDS011;4276;49.354;6.804;2023-06-26T13:41:22;2.67;;;1.70;;
8478;SDS011;4276;49.354;6.804;2023-06-26T13:43:49;3.42;;;2.00;;
8478;SDS011;4276;49.354;6.804;2023-06-26T13:46:16;2.50;;;1.52;;
8478;SDS011;4276;49.354;6.804;2023-06-26T13:48:44;2.13;;;1.80;;
8478;SDS011;4276;49.354;6.804;2023-06-26T13:51:11;2.72;;;1.52;;
8478;SDS011;4276;49.354;6.804;2023-06-26T13:53:37;1.73;;;1.50;;
8478;SDS011;4276;49.354;6.804;2023-06-26T13:56:04;3.13;;;1.67;;
8478;SDS011;4276;49.354;6.804;2023-06-26T13:58:30;3.08;;;1.60;;
8478;SDS011;4276;49.354;6.804;2023-06-26T14:00:59;1.83;;;1.60;;
8478;SDS011;4276;49.354;6.804;2023-06-26T14:03:26;4.40;;;2.15;;
8478;SDS011;4276;49.354;6.804;2023-06-26T14:05:53;2.97;;;1.90;;
8478;SDS011;4276;49.354;6.804;2023-06-26T14:08:20;1.98;;;1.60;;
8478;SDS011;4276;49.354;6.804;2023-06-26T14:10:46;2.13;;;1.65;;
8478;SDS011;4276;49.354;6.804;2023-06-26T14:13:13;3.42;;;1.77;;
8478;SDS011;4276;49.354;6.804;2023-06-26T14:15:42;3.67;;;2.15;;
8478;SDS011;4276;49.354;6.804;2023-06-26T14:18:08;2.83;;;1.80;;
8478;SDS011;4276;49.354;6.804;2023-06-26T14:20:35;1.80;;;1.58;;
8478;SDS011;4276;49.354;6.804;2023-06-26T14:23:03;2.30;;;1.63;;
8478;SDS011;4276;49.354;6.804;2023-06-26T14:25:29;4.40;;;1.80;;
8478;SDS011;4276;49.354;6.804;2023-06-26T14:27:56;1.95;;;1.48;;
8478;SDS011;4276;49.354;6.804;2023-06-26T14:30:23;2.97;;;1.50;;
8478;SDS011;4276;49.354;6.804;2023-06-26T14:32:50;2.47;;;1.70;;
8478;SDS011;4276;49.354;6.804;2023-06-26T14:35:17;2.90;;;1.83;;
8478;SDS011;4276;49.354;6.804;2023-06-26T14:37:43;2.90;;;1.77;;
8478;SDS011;4276;49.354;6.804;2023-06-26T14:40:10;3.70;;;1.95;;
8478;SDS011;4276;49.354;6.804;2023-06-26T14:42:38;3.80;;;1.70;;
8478;SDS011;4276;49.354;6.804;2023-06-26T14:45:05;3.22;;;1.73;;
8478;SDS011;4276;49.354;6.804;2023-06-26T14:47:32;4.80;;;2.03;;
8478;SDS011;4276;49.354;6.804;2023-06-26T14:49:59;2.83;;;2.20;;
8478;SDS011;4276;49.354;6.804;2023-06-26T14:52:26;4.28;;;2.97;;
8478;SDS011;4276;49.354;6.804;2023-06-26T14:54:52;2.83;;;1.90;;
8478;SDS011;4276;49.354;6.804;2023-06-26T14:57:19;2.55;;;2.30;;
8478;SDS011;4276;49.354;6.804;2023-06-26T14:59:45;3.78;;;1.70;;
8478;SDS011;4276;49.354;6.804;2023-06-26T15:02:12;4.18;;;1.60;;
8478;SDS011;4276;49.354;6.804;2023-06-26T15:04:39;3.03;;;2.03;;
8478;SDS011;4276;49.354;6.804;2023-06-26T15:07:05;2.83;;;2.42;;
8478;SDS011;4276;49.354;6.804;2023-06-26T15:09:32;3.75;;;1.90;;
8478;SDS011;4276;49.354;6.804;2023-06-26T15:11:58;2.25;;;1.98;;
8478;SDS011;4276;49.354;6.804;2023-06-26T15:14:25;3.08;;;1.90;;
8478;SDS011;4276;49.354;6.804;2023-06-26T15:16:51;3.65;;;1.75;;
8478;SDS011;4276;49.354;6.804;2023-06-26T15:19:18;2.20;;;1.80;;
8478;SDS011;4276;49.354;6.804;2023-06-26T15:21:45;3.58;;;1.95;;
8478;SDS011;4276;49.354;6.804;2023-06-26T15:24:11;3.38;;;2.03;;
8478;SDS011;4276;49.354;6.804;2023-06-26T15:26:38;2.72;;;1.83;;
8478;SDS011;4276;49.354;6.804;2023-06-26T15:29:04;3.03;;;1.98;;
8478;SDS011;4276;49.354;6.804;2023-06-26T15:31:31;5.35;;;2.00;;
8478;SDS011;4276;49.354;6.804;2023-06-26T15:33:57;4.30;;;2.30;;